Portada
METAR-TAF:

METAR-TAF

Aeroports :

Gachsaran, Iran

latitud: 30-26N, longitud: 050-46E, altitud: 738 m

Observació

L'informe es va fer fa 59 minuts, a les 06:00 UTC
Vent 6 kt del Est/Sud-Est
Temperatura 39°C
Humitat 20%
Pressió 1011 hPa
Visibilitat 10 km o més
sense núvols per sota de 1500 mi sense presència de cumulonimbus.

METAR: OIAH 020600Z 12006KT CAVOK 39/12 Q1011

Hora: 11:29 (06:59 UTC)


TAF: manca

Observacions i pronòstics meteorològics de més de 4000 aeroports (METAR i TAF).

Les estacions disponibles són els punts grocs i vermells al mapa.

Posi el ratolí al punt desitjat per veure el nom de l'estació.

Feu clic per veure les observacions i els pronòstics meteorològics.

Per canviar el mapa: feu clic els botons verds amb una creu de color negre per apropar; al botó verd amb un guió per allunyar la imatge; o en les fletxes verdes per a mapes adjacents.


METAR-TAF: